createdAt,value
2023-05-05T00:02:41.543Z,60.49
2023-05-05T00:06:25.028Z,60.52
2023-05-05T00:10:09.357Z,60.56
2023-05-05T00:13:34.375Z,61.42
2023-05-05T00:17:12.312Z,62.54
2023-05-05T00:21:08.802Z,62.98
2023-05-05T00:24:33.392Z,63.63
2023-05-05T00:28:29.952Z,63.13
2023-05-05T00:32:14.228Z,64.72
2023-05-05T00:35:39.244Z,64.15
2023-05-05T00:39:16.751Z,63.66
2023-05-05T00:42:54.687Z,64.37
2023-05-05T00:46:33.938Z,64.40
2023-05-05T00:50:10.907Z,64.20
2023-05-05T00:53:48.745Z,64.44
2023-05-05T00:57:26.010Z,64.72
2023-05-05T01:01:21.791Z,63.70
2023-05-05T01:05:07.222Z,64.47
2023-05-05T01:09:18.860Z,64.59
2023-05-05T01:13:10.762Z,64.61
2023-05-05T01:16:41.623Z,64.89
2023-05-05T01:20:57.481Z,64.75
2023-05-05T01:24:59.702Z,64.80
2023-05-05T01:29:00.912Z,64.74
2023-05-05T01:32:30.065Z,65.24
2023-05-05T01:36:11.919Z,65.47
2023-05-05T01:39:44.685Z,66.72
2023-05-05T01:43:23.455Z,66.55
2023-05-05T01:46:59.770Z,67.20
2023-05-05T01:50:36.806Z,66.49
2023-05-05T01:54:13.995Z,65.97
2023-05-05T01:57:52.275Z,65.73
2023-05-05T02:01:30.508Z,66.87
2023-05-05T02:05:06.905Z,65.93
2023-05-05T02:08:44.875Z,66.91
2023-05-05T02:12:44.555Z,66.67
2023-05-05T02:16:30.533Z,66.41
2023-05-05T02:19:58.978Z,66.42
2023-05-05T02:23:33.305Z,66.97
2023-05-05T02:27:12.118Z,66.63
2023-05-05T02:31:09.861Z,67.11
2023-05-05T02:34:54.712Z,67.95
2023-05-05T02:38:26.459Z,67.72
2023-05-05T02:42:21.097Z,68.85
2023-05-05T02:46:05.986Z,68.28
2023-05-05T02:49:49.746Z,67.68
2023-05-05T02:53:14.909Z,67.83
2023-05-05T02:57:17.681Z,67.62
2023-05-05T03:01:01.526Z,68.11
2023-05-05T03:04:38.393Z,69.38
2023-05-05T03:08:40.211Z,68.50
2023-05-05T03:12:29.522Z,68.74
2023-05-05T03:16:06.812Z,68.95
2023-05-05T03:19:57.671Z,68.61
2023-05-05T03:23:23.352Z,68.89
2023-05-05T03:27:20.050Z,68.83
2023-05-05T03:30:45.046Z,69.46
2023-05-05T03:34:22.596Z,69.62
2023-05-05T03:38:00.299Z,69.57
2023-05-05T03:41:38.134Z,69.50
2023-05-05T03:45:34.827Z,69.35
2023-05-05T03:49:00.599Z,69.41
2023-05-05T03:52:57.048Z,69.39
2023-05-05T03:56:40.895Z,69.56
2023-05-05T04:00:06.817Z,69.92
2023-05-05T04:03:43.138Z,69.99
2023-05-05T04:07:39.620Z,69.71
2023-05-05T04:11:23.471Z,70.14
2023-05-05T04:15:08.217Z,70.56
2023-05-05T04:18:52.209Z,71.09
2023-05-05T04:22:17.169Z,71.29
2023-05-05T04:26:13.654Z,72.61
2023-05-05T04:29:39.061Z,72.41
2023-05-05T04:33:35.181Z,71.91
2023-05-05T04:36:59.905Z,71.77
2023-05-05T04:40:56.577Z,71.53
2023-05-05T04:44:21.588Z,71.28
2023-05-05T04:47:59.356Z,71.19
2023-05-05T04:51:55.923Z,71.85
2023-05-05T04:55:20.718Z,72.18
2023-05-05T04:59:17.163Z,72.47
2023-05-05T05:02:42.323Z,72.03
2023-05-05T05:06:19.855Z,72.06
2023-05-05T05:10:16.617Z,71.68
2023-05-05T05:13:41.758Z,72.14
2023-05-05T05:17:21.147Z,71.76
2023-05-05T05:20:56.996Z,71.62
2023-05-05T05:24:53.556Z,71.18
2023-05-05T05:28:18.561Z,70.71
2023-05-05T05:31:56.470Z,70.45
2023-05-05T05:35:33.975Z,70.15
2023-05-05T05:39:30.644Z,69.95
2023-05-05T05:43:14.287Z,69.66
2023-05-05T05:46:57.879Z,69.14
2023-05-05T05:50:24.497Z,69.06
2023-05-05T05:54:19.745Z,68.47
2023-05-05T05:57:44.814Z,67.82
2023-05-05T06:01:41.500Z,67.30
2023-05-05T06:05:25.278Z,67.32
2023-05-05T06:09:09.499Z,67.33
2023-05-05T06:12:54.689Z,67.40
2023-05-05T06:16:20.302Z,67.11
2023-05-05T06:19:57.429Z,67.07
2023-05-05T06:23:54.155Z,66.85
2023-05-05T06:27:19.159Z,66.57
2023-05-05T06:31:16.790Z,66.42
2023-05-05T06:35:00.598Z,65.44
2023-05-05T06:38:44.173Z,65.49
2023-05-05T06:42:30.073Z,65.10
2023-05-05T06:46:14.932Z,64.13
2023-05-05T06:49:39.466Z,63.93
2023-05-05T06:53:17.422Z,63.62
2023-05-05T06:57:13.738Z,62.22
2023-05-05T07:00:39.410Z,61.12
2023-05-05T07:04:35.857Z,60.97
2023-05-05T07:08:19.609Z,59.75
2023-05-05T07:12:03.010Z,59.52
2023-05-05T07:15:46.608Z,58.41
2023-05-05T07:19:30.573Z,57.77
2023-05-05T07:22:57.074Z,57.39
2023-05-05T07:26:52.031Z,56.53
2023-05-05T07:30:35.344Z,54.01
2023-05-05T07:34:00.286Z,54.63
2023-05-05T07:37:57.020Z,53.61
2023-05-05T07:41:44.258Z,53.06
2023-05-05T07:45:28.653Z,51.46
2023-05-05T07:49:12.499Z,49.93
2023-05-05T07:53:02.414Z,50.97
2023-05-05T07:56:54.049Z,49.98
2023-05-05T08:00:19.649Z,48.76
2023-05-05T08:03:56.791Z,48.47
2023-05-05T08:07:36.561Z,42.58
2023-05-05T08:11:12.150Z,40.41
2023-05-05T08:14:49.711Z,44.46
2023-05-05T08:18:27.436Z,45.59
2023-05-05T08:22:05.347Z,41.27
2023-05-05T08:25:43.852Z,42.42
2023-05-05T08:29:20.804Z,44.02
2023-05-05T08:33:17.526Z,45.26
2023-05-05T08:37:01.303Z,46.14
2023-05-05T08:40:32.386Z,45.91
2023-05-05T08:44:22.643Z,45.75
2023-05-05T08:47:47.164Z,45.76
2023-05-05T08:51:45.989Z,45.81
2023-05-05T08:55:34.578Z,45.96
2023-05-05T08:59:01.566Z,46.20
2023-05-05T09:02:58.227Z,45.28
2023-05-05T09:06:42.310Z,44.59
2023-05-05T09:10:30.596Z,44.86
2023-05-05T09:14:14.275Z,44.04
2023-05-05T09:17:40.063Z,43.83
2023-05-05T09:21:24.887Z,41.61
2023-05-05T09:24:55.278Z,43.89
2023-05-05T09:28:32.459Z,44.43
2023-05-05T09:32:30.522Z,42.09
2023-05-05T09:35:56.425Z,40.04
2023-05-05T09:39:33.152Z,40.45
2023-05-05T09:43:11.073Z,42.69
2023-05-05T09:46:53.002Z,42.18
2023-05-05T09:50:30.304Z,41.05
2023-05-05T09:54:27.932Z,43.06
2023-05-05T09:58:22.922Z,41.64
2023-05-05T10:02:13.106Z,42.14
2023-05-05T10:06:00.257Z,39.11
2023-05-05T10:09:27.019Z,39.88
2023-05-05T10:13:03.021Z,41.35
2023-05-05T10:17:01.073Z,40.93
2023-05-05T10:20:48.156Z,41.33
2023-05-05T10:24:42.258Z,39.91
2023-05-05T10:28:33.318Z,39.87
2023-05-05T10:36:19.761Z,42.22
2023-05-05T10:40:05.118Z,43.24
2023-05-05T10:43:50.996Z,42.22
2023-05-05T10:47:36.606Z,43.26
2023-05-05T10:51:35.098Z,42.04
2023-05-05T10:55:36.733Z,40.05
2023-05-05T10:59:37.403Z,40.61
2023-05-05T11:03:17.898Z,40.78
2023-05-05T11:07:15.138Z,41.92
2023-05-05T11:11:02.227Z,41.88
2023-05-05T11:14:46.245Z,40.51
2023-05-05T11:18:38.485Z,41.30
2023-05-05T11:22:23.478Z,39.93
2023-05-05T11:26:08.194Z,39.15
2023-05-05T11:30:09.447Z,39.44
2023-05-05T11:33:37.774Z,38.80
2023-05-05T11:37:13.431Z,39.05
2023-05-05T11:40:51.309Z,40.11
2023-05-05T11:44:47.083Z,35.90
2023-05-05T11:48:26.344Z,37.37
2023-05-05T11:52:04.166Z,39.00
2023-05-05T11:55:49.411Z,39.27
2023-05-05T11:59:38.231Z,37.01
2023-05-05T12:03:22.065Z,37.66
2023-05-05T12:07:06.037Z,37.55
2023-05-05T12:10:30.750Z,39.54
2023-05-05T12:14:27.162Z,39.20
2023-05-05T12:18:20.413Z,38.32
2023-05-05T12:21:45.682Z,37.20
2023-05-05T12:25:23.298Z,38.15
2023-05-05T12:29:01.275Z,38.32
2023-05-05T12:33:05.873Z,36.26
2023-05-05T12:49:49.123Z,36.41
2023-05-05T12:53:45.201Z,36.39
2023-05-05T12:57:12.768Z,34.45
2023-05-05T13:01:08.117Z,34.71
2023-05-05T13:04:53.837Z,32.73
2023-05-05T13:08:18.845Z,34.64
2023-05-05T13:11:56.763Z,33.03
2023-05-05T13:15:34.108Z,34.93
2023-05-05T13:19:30.857Z,34.87
2023-05-05T13:23:14.370Z,33.49
2023-05-05T13:26:57.866Z,31.34
2023-05-05T13:30:41.792Z,31.25
2023-05-05T13:34:06.315Z,33.55
2023-05-05T13:37:45.986Z,35.23
2023-05-05T13:41:40.672Z,32.92
2023-05-05T13:45:24.241Z,34.35
2023-05-05T13:49:07.750Z,33.16
2023-05-05T13:52:33.409Z,31.18
2023-05-05T13:56:10.571Z,31.42
2023-05-05T13:59:47.639Z,31.23
2023-05-05T14:03:25.563Z,32.48
2023-05-05T14:07:22.068Z,33.31
2023-05-05T14:10:47.775Z,33.85
2023-05-05T14:14:24.533Z,32.72
2023-05-05T14:18:02.258Z,33.71
2023-05-05T14:21:39.937Z,34.91
2023-05-05T14:25:36.457Z,33.56
2023-05-05T14:29:19.879Z,31.51
2023-05-05T14:32:45.017Z,33.56
2023-05-05T14:36:41.581Z,33.16
2023-05-05T14:40:25.802Z,32.59
2023-05-05T14:43:50.613Z,32.35
2023-05-05T14:47:28.476Z,32.56
2023-05-05T14:51:26.589Z,31.78
2023-05-05T14:55:10.690Z,30.32
2023-05-05T14:58:37.300Z,31.46
2023-05-05T15:02:32.108Z,31.55
2023-05-05T15:06:16.296Z,28.46
2023-05-05T15:10:00.288Z,32.10
2023-05-05T15:13:43.419Z,33.26
2023-05-05T15:17:27.952Z,32.02
2023-05-05T15:20:52.366Z,30.57
2023-05-05T15:24:48.852Z,32.52
2023-05-05T15:28:14.148Z,29.38
2023-05-05T15:32:10.762Z,31.68
2023-05-05T15:35:54.212Z,31.15
2023-05-05T15:39:19.131Z,32.75
2023-05-05T15:42:58.143Z,30.58
2023-05-05T15:46:34.465Z,31.31
2023-05-05T15:50:11.962Z,32.42
2023-05-05T15:54:08.687Z,32.02
2023-05-05T15:57:55.143Z,31.53
2023-05-05T16:01:19.998Z,32.50
2023-05-05T16:05:00.194Z,33.14
2023-05-05T16:08:55.557Z,33.26
2023-05-05T16:12:39.405Z,31.78
2023-05-05T16:16:22.862Z,32.83
2023-05-05T16:20:06.843Z,33.27
2023-05-05T16:23:31.073Z,33.97
2023-05-05T16:27:09.031Z,33.65
2023-05-05T16:30:46.438Z,33.71
2023-05-05T16:34:43.059Z,33.82
2023-05-05T16:38:07.978Z,33.83
2023-05-05T16:42:05.660Z,34.54
2023-05-05T16:45:30.353Z,33.53
2023-05-05T16:49:08.570Z,32.55
2023-05-05T16:52:45.624Z,34.12
2023-05-05T16:56:42.365Z,33.78
2023-05-05T17:00:07.869Z,34.43
2023-05-05T17:03:44.628Z,34.86
2023-05-05T17:07:41.177Z,35.26
2023-05-05T17:11:06.083Z,35.73
2023-05-05T17:15:02.374Z,36.18
2023-05-05T17:18:48.945Z,36.55
2023-05-05T17:22:32.786Z,37.13
2023-05-05T17:25:59.388Z,37.54
2023-05-05T17:29:40.741Z,38.18
2023-05-05T17:33:31.890Z,38.17
2023-05-05T17:37:15.598Z,38.45
2023-05-05T17:40:58.930Z,38.73
2023-05-05T17:44:26.218Z,39.22
2023-05-05T17:48:22.748Z,39.49
2023-05-05T17:51:49.954Z,39.80
2023-05-05T17:55:45.284Z,40.13
2023-05-05T17:59:09.881Z,40.34
2023-05-05T18:03:06.763Z,40.59
2023-05-05T18:06:32.267Z,40.86
2023-05-05T18:10:28.599Z,41.25
2023-05-05T18:13:55.863Z,41.95
2023-05-05T18:17:31.395Z,43.11
2023-05-05T18:21:12.269Z,45.29
2023-05-05T18:24:47.151Z,46.16
2023-05-05T18:28:26.768Z,47.49
2023-05-05T18:32:02.274Z,48.97
2023-05-05T18:35:39.880Z,48.25
2023-05-05T18:39:17.810Z,48.97
2023-05-05T18:42:55.939Z,48.81
2023-05-05T18:46:51.681Z,48.64
2023-05-05T18:50:16.870Z,49.59
2023-05-05T18:53:54.636Z,49.45
2023-05-05T18:57:50.732Z,48.99
2023-05-05T19:01:16.386Z,50.38
2023-05-05T19:05:12.279Z,50.23
2023-05-05T19:08:56.708Z,50.55
2023-05-05T19:12:21.285Z,51.00
2023-05-05T19:16:17.879Z,51.64
2023-05-05T19:19:42.758Z,51.33
2023-05-05T19:23:23.355Z,50.59
2023-05-05T19:27:17.361Z,50.68
2023-05-05T19:31:01.174Z,50.74
2023-05-05T19:34:26.186Z,50.44
2023-05-05T19:38:03.453Z,50.25
2023-05-05T19:41:41.176Z,50.18
2023-05-05T19:45:37.971Z,50.17
2023-05-05T19:49:21.742Z,50.20
2023-05-05T19:52:46.756Z,50.46
2023-05-05T19:56:27.231Z,50.83
2023-05-05T20:00:02.221Z,50.68
2023-05-05T20:03:58.821Z,50.87
2023-05-05T20:07:23.901Z,51.15
2023-05-05T20:11:20.985Z,53.06
2023-05-05T20:14:46.791Z,53.81
2023-05-05T20:18:42.280Z,54.47
2023-05-05T20:22:27.186Z,54.14
2023-05-05T20:25:52.745Z,54.28
2023-05-05T20:29:48.095Z,53.86
2023-05-05T20:33:12.661Z,54.68
2023-05-05T20:36:51.207Z,54.39
2023-05-05T20:40:46.964Z,54.24
2023-05-05T20:44:30.760Z,54.41
2023-05-05T20:48:14.305Z,54.75
2023-05-05T20:51:57.959Z,54.75
2023-05-05T20:55:22.859Z,55.17
2023-05-05T20:59:00.914Z,56.06
2023-05-05T21:02:38.226Z,55.60
2023-05-05T21:06:15.839Z,56.57
2023-05-05T21:09:53.432Z,56.10
2023-05-05T21:13:32.002Z,56.30
2023-05-05T21:17:28.540Z,55.99
2023-05-05T21:20:53.298Z,55.74
2023-05-05T21:24:30.877Z,56.22
2023-05-05T21:28:08.546Z,56.16
2023-05-05T21:31:46.663Z,56.26
2023-05-05T21:35:42.702Z,56.09
2023-05-05T21:39:07.479Z,56.32
2023-05-05T21:42:45.988Z,56.67
2023-05-05T21:46:22.863Z,57.23
2023-05-05T21:50:19.404Z,56.56
2023-05-05T21:53:44.077Z,57.63
2023-05-05T21:57:40.814Z,58.10
2023-05-05T22:01:05.743Z,58.37
2023-05-05T22:04:42.862Z,57.94
2023-05-05T22:08:39.312Z,58.53
2023-05-05T22:12:04.658Z,59.63
2023-05-05T22:16:00.655Z,59.70
2023-05-05T22:19:25.132Z,60.00
2023-05-05T22:23:03.357Z,59.51
2023-05-05T22:26:59.437Z,59.28
2023-05-05T22:30:23.744Z,59.93
2023-05-05T22:34:01.550Z,60.39
2023-05-05T22:37:58.359Z,60.57
2023-05-05T22:41:23.071Z,60.99
2023-05-05T22:45:21.232Z,61.03
2023-05-05T22:49:05.634Z,61.31
2023-05-05T22:52:49.028Z,61.81
2023-05-05T22:56:32.252Z,61.80
2023-05-05T23:00:16.286Z,62.20
2023-05-05T23:03:59.477Z,62.17
2023-05-05T23:07:25.377Z,62.69
2023-05-05T23:11:20.443Z,61.97
2023-05-05T23:15:07.525Z,62.26
2023-05-05T23:18:57.004Z,62.43
2023-05-05T23:22:40.889Z,62.34
2023-05-05T23:26:25.054Z,63.40
2023-05-05T23:30:09.156Z,63.21
2023-05-05T23:33:53.866Z,63.51
2023-05-05T23:37:18.664Z,63.93
2023-05-05T23:41:14.977Z,64.60
2023-05-05T23:44:39.548Z,64.02
2023-05-05T23:48:17.285Z,64.86
2023-05-05T23:52:13.820Z,65.03
2023-05-05T23:55:58.049Z,64.65
2023-05-05T23:59:42.059Z,65.19
